<?xml version="1.0" encoding="UTF-8" standalone="no" ?><gpx xmlns="http://www.topografix.com/GPX/1/1" xmlns:gpxx="http://www.garmin.com/xmlschemas/GpxExtensions/v3" xmlns:wptx1="http://www.garmin.com/xmlschemas/WaypointExtension/v1" xmlns:gpxtpx="http://www.garmin.com/xmlschemas/TrackPointExtension/v1" creator="GuideVTT.com" version="1.1" xmlns:xsi="http://www.w3.org/2001/XMLSchema-instance" xsi:schemaLocation="http://www.topografix.com/GPX/1/1 http://www.topografix.com/GPX/1/1/gpx.xsd http://www.garmin.com/xmlschemas/GpxExtensions/v3 http://www8.garmin.com/xmlschemas/GpxExtensionsv3.xsd http://www.garmin.com/xmlschemas/WaypointExtension/v1 http://www8.garmin.com/xmlschemas/WaypointExtensionv1.xsd http://www.garmin.com/xmlschemas/TrackPointExtension/v1 http://www.garmin.com/xmlschemas/TrackPointExtensionv1.xsd">
<metadata><link href="http://www.garmin.com"><text>Garmin International</text></link><time>2013-06-22T15:13:50Z</time></metadata>
<trk><name>viville_20080817.gpx</name><extensions><gpxx:TrackExtension><gpxx:DisplayColor>Cyan</gpxx:DisplayColor></gpxx:TrackExtension></extensions><trkseg>
<trkpt lat="49.67882220" lon="5.79629050"><ele>396.200562</ele><time>2008-08-17T14:32:24Z</time></trkpt>
<trkpt lat="49.67880320" lon="5.79629780"><ele>396.200562</ele><time>2008-08-17T14:32:25Z</time></trkpt>
<trkpt lat="49.67878650" lon="5.79631040"><ele>391.393799</ele><time>2008-08-17T14:32:26Z</time></trkpt>
<trkpt lat="49.67876590" lon="5.79631450"><ele>391.393799</ele><time>2008-08-17T14:32:27Z</time></trkpt>
<trkpt lat="49.67845780" lon="5.79656340"><ele>391.393799</ele><time>2008-08-17T14:32:43Z</time></trkpt>
<trkpt lat="49.67814830" lon="5.79672430"><ele>389.951904</ele><time>2008-08-17T14:32:58Z</time></trkpt>
<trkpt lat="49.67774060" lon="5.79692520"><ele>389.951904</ele><time>2008-08-17T14:33:14Z</time></trkpt>
<trkpt lat="49.67734130" lon="5.79686590"><ele>389.471191</ele><time>2008-08-17T14:33:30Z</time></trkpt>
<trkpt lat="49.67712160" lon="5.79617490"><ele>388.51001</ele><time>2008-08-17T14:33:46Z</time></trkpt>
<trkpt lat="49.67695440" lon="5.79547540"><ele>385.145386</ele><time>2008-08-17T14:33:58Z</time></trkpt>
<trkpt lat="49.67642140" lon="5.79410380"><ele>386.106689</ele><time>2008-08-17T14:34:21Z</time></trkpt>
<trkpt lat="49.67600000" lon="5.79322540"><ele>385.625977</ele><time>2008-08-17T14:34:41Z</time></trkpt>
<trkpt lat="49.67538800" lon="5.79233200"><ele>386.587402</ele><time>2008-08-17T14:35:05Z</time></trkpt>
<trkpt lat="49.67516330" lon="5.79207920"><ele>386.587402</ele><time>2008-08-17T14:35:13Z</time></trkpt>
<trkpt lat="49.67521780" lon="5.79195830"><ele>387.067993</ele><time>2008-08-17T14:35:18Z</time></trkpt>
<trkpt lat="49.67553860" lon="5.79139300"><ele>387.548584</ele><time>2008-08-17T14:35:34Z</time></trkpt>
<trkpt lat="49.67590680" lon="5.79074430"><ele>387.548584</ele><time>2008-08-17T14:35:52Z</time></trkpt>
<trkpt lat="49.67624400" lon="5.78985460"><ele>386.587402</ele><time>2008-08-17T14:36:11Z</time></trkpt>
<trkpt lat="49.67655580" lon="5.78881520"><ele>386.587402</ele><time>2008-08-17T14:36:30Z</time></trkpt>
<trkpt lat="49.67682630" lon="5.78782010"><ele>389.951904</ele><time>2008-08-17T14:36:51Z</time></trkpt>
<trkpt lat="49.67703730" lon="5.78685420"><ele>389.471191</ele><time>2008-08-17T14:37:12Z</time></trkpt>
<trkpt lat="49.67710810" lon="5.78624130"><ele>391.393799</ele><time>2008-08-17T14:37:26Z</time></trkpt>
<trkpt lat="49.67736000" lon="5.78565650"><ele>392.835938</ele><time>2008-08-17T14:37:41Z</time></trkpt>
<trkpt lat="49.67759550" lon="5.78524450"><ele>393.797241</ele><time>2008-08-17T14:37:55Z</time></trkpt>
<trkpt lat="49.67772490" lon="5.78499780"><ele>394.758545</ele><time>2008-08-17T14:38:08Z</time></trkpt>
<trkpt lat="49.67796330" lon="5.78453110"><ele>396.681152</ele><time>2008-08-17T14:38:23Z</time></trkpt>
<trkpt lat="49.67801410" lon="5.78388760"><ele>399.565063</ele><time>2008-08-17T14:38:41Z</time></trkpt>
<trkpt lat="49.67805890" lon="5.78332020"><ele>401.487793</ele><time>2008-08-17T14:38:57Z</time></trkpt>
<trkpt lat="49.67806400" lon="5.78325630"><ele>401.487793</ele><time>2008-08-17T14:38:59Z</time></trkpt>
<trkpt lat="49.67810960" lon="5.78305750"><ele>401.00708</ele><time>2008-08-17T14:39:05Z</time></trkpt>
<trkpt lat="49.67835500" lon="5.78248070"><ele>401.487793</ele><time>2008-08-17T14:39:24Z</time></trkpt>
<trkpt lat="49.67840270" lon="5.78236160"><ele>400.526489</ele><time>2008-08-17T14:39:34Z</time></trkpt>
<trkpt lat="49.67859760" lon="5.78187920"><ele>401.487793</ele><time>2008-08-17T14:39:48Z</time></trkpt>
<trkpt lat="49.67876340" lon="5.78154750"><ele>401.00708</ele><time>2008-08-17T14:40:01Z</time></trkpt>
<trkpt lat="49.67882860" lon="5.78141700"><ele>401.968506</ele><time>2008-08-17T14:40:15Z</time></trkpt>
<trkpt lat="49.67882860" lon="5.78141700"><ele>401.00708</ele><time>2008-08-17T14:40:41Z</time></trkpt>
<trkpt lat="49.67882860" lon="5.78141700"><ele>401.487793</ele><time>2008-08-17T14:40:43Z</time></trkpt>
<trkpt lat="49.67876660" lon="5.78121600"><ele>401.00708</ele><time>2008-08-17T14:40:53Z</time></trkpt>
<trkpt lat="49.67877780" lon="5.78115490"><ele>401.00708</ele><time>2008-08-17T14:40:55Z</time></trkpt>
<trkpt lat="49.67900660" lon="5.78048510"><ele>398.123169</ele><time>2008-08-17T14:41:11Z</time></trkpt>
<trkpt lat="49.67933060" lon="5.77988700"><ele>395.239136</ele><time>2008-08-17T14:41:25Z</time></trkpt>
<trkpt lat="49.67963300" lon="5.77923590"><ele>394.277954</ele><time>2008-08-17T14:41:39Z</time></trkpt>
<trkpt lat="49.67979860" lon="5.77838330"><ele>393.316528</ele><time>2008-08-17T14:41:56Z</time></trkpt>
<trkpt lat="49.67984030" lon="5.77778750"><ele>392.355347</ele><time>2008-08-17T14:42:07Z</time></trkpt>
<trkpt lat="49.67985140" lon="5.77750020"><ele>392.355347</ele><time>2008-08-17T14:42:12Z</time></trkpt>
<trkpt lat="49.67993410" lon="5.77643680"><ele>392.355347</ele><time>2008-08-17T14:42:30Z</time></trkpt>
<trkpt lat="49.68002060" lon="5.77561580"><ele>391.874512</ele><time>2008-08-17T14:42:46Z</time></trkpt>
<trkpt lat="49.68017180" lon="5.77533430"><ele>388.51001</ele><time>2008-08-17T14:42:55Z</time></trkpt>
<trkpt lat="49.68020960" lon="5.77482110"><ele>388.990601</ele><time>2008-08-17T14:43:01Z</time></trkpt>
<trkpt lat="49.68009010" lon="5.77383150"><ele>392.355347</ele><time>2008-08-17T14:43:20Z</time></trkpt>
<trkpt lat="49.67996650" lon="5.77300380"><ele>391.393799</ele><time>2008-08-17T14:43:37Z</time></trkpt>
<trkpt lat="49.67982910" lon="5.77217960"><ele>390.432617</ele><time>2008-08-17T14:43:53Z</time></trkpt>
<trkpt lat="49.67970800" lon="5.77170580"><ele>389.951904</ele><time>2008-08-17T14:44:02Z</time></trkpt>
<trkpt lat="49.68011390" lon="5.77148690"><ele>390.913208</ele><time>2008-08-17T14:44:14Z</time></trkpt>
<trkpt lat="49.68056350" lon="5.77124480"><ele>391.393799</ele><time>2008-08-17T14:44:27Z</time></trkpt>
<trkpt lat="49.68060390" lon="5.77122300"><ele>390.913208</ele><time>2008-08-17T14:44:28Z</time></trkpt>
<trkpt lat="49.68145900" lon="5.77077770"><ele>389.951904</ele><time>2008-08-17T14:44:47Z</time></trkpt>
<trkpt lat="49.68234920" lon="5.77065900"><ele>387.067993</ele><time>2008-08-17T14:45:05Z</time></trkpt>
<trkpt lat="49.68306730" lon="5.77070390"><ele>383.703247</ele><time>2008-08-17T14:45:17Z</time></trkpt>
<trkpt lat="49.68397500" lon="5.77060220"><ele>381.300049</ele><time>2008-08-17T14:45:31Z</time></trkpt>
<trkpt lat="49.68483610" lon="5.77015890"><ele>378.896851</ele><time>2008-08-17T14:45:45Z</time></trkpt>
<trkpt lat="49.68593480" lon="5.76943890"><ele>377.454834</ele><time>2008-08-17T14:46:07Z</time></trkpt>
<trkpt lat="49.68615260" lon="5.76925750"><ele>377.454834</ele><time>2008-08-17T14:46:12Z</time></trkpt>
<trkpt lat="49.68658230" lon="5.76900170"><ele>377.935425</ele><time>2008-08-17T14:46:25Z</time></trkpt>
<trkpt lat="49.68659620" lon="5.76899410"><ele>377.454834</ele><time>2008-08-17T14:46:39Z</time></trkpt>
<trkpt lat="49.68687450" lon="5.76894830"><ele>377.454834</ele><time>2008-08-17T14:46:50Z</time></trkpt>
<trkpt lat="49.68734980" lon="5.76897620"><ele>379.858032</ele><time>2008-08-17T14:47:06Z</time></trkpt>
<trkpt lat="49.68791320" lon="5.76920120"><ele>381.78064</ele><time>2008-08-17T14:47:27Z</time></trkpt>
<trkpt lat="49.68836310" lon="5.76940560"><ele>378.896851</ele><time>2008-08-17T14:47:38Z</time></trkpt>
<trkpt lat="49.68888760" lon="5.76941010"><ele>376.974243</ele><time>2008-08-17T14:47:50Z</time></trkpt>
<trkpt lat="49.68902060" lon="5.76933030"><ele>376.012817</ele><time>2008-08-17T14:47:53Z</time></trkpt>
<trkpt lat="49.68928870" lon="5.76916940"><ele>374.090088</ele><time>2008-08-17T14:47:58Z</time></trkpt>
<trkpt lat="49.68964820" lon="5.76908420"><ele>371.206299</ele><time>2008-08-17T14:48:03Z</time></trkpt>
<trkpt lat="49.68996230" lon="5.76901910"><ele>369.283691</ele><time>2008-08-17T14:48:07Z</time></trkpt>
<trkpt lat="49.69049210" lon="5.76890950"><ele>367.841553</ele><time>2008-08-17T14:48:16Z</time></trkpt>
<trkpt lat="49.69067730" lon="5.76886300"><ele>368.322266</ele><time>2008-08-17T14:48:27Z</time></trkpt>
<trkpt lat="49.69067730" lon="5.76886300"><ele>368.322266</ele><time>2008-08-17T14:48:46Z</time></trkpt>
<trkpt lat="49.69067730" lon="5.76886300"><ele>366.399536</ele><time>2008-08-17T14:48:52Z</time></trkpt>
<trkpt lat="49.69067730" lon="5.76886300"><ele>373.609497</ele><time>2008-08-17T14:48:54Z</time></trkpt>
<trkpt lat="49.69067730" lon="5.76886300"><ele>364.476929</ele><time>2008-08-17T14:48:55Z</time></trkpt>
<trkpt lat="49.69067730" lon="5.76886300"><ele>368.322266</ele><time>2008-08-17T14:48:56Z</time></trkpt>
<trkpt lat="49.69067730" lon="5.76886300"><ele>363.515747</ele><time>2008-08-17T14:49:02Z</time></trkpt>
<trkpt lat="49.69067730" lon="5.76886300"><ele>369.283691</ele><time>2008-08-17T14:49:03Z</time></trkpt>
<trkpt lat="49.69067730" lon="5.76886300"><ele>364.476929</ele><time>2008-08-17T14:49:07Z</time></trkpt>
<trkpt lat="49.69067730" lon="5.76886300"><ele>370.244873</ele><time>2008-08-17T14:49:08Z</time></trkpt>
<trkpt lat="49.69067730" lon="5.76886300"><ele>366.880249</ele><time>2008-08-17T14:49:10Z</time></trkpt>
<trkpt lat="49.69067730" lon="5.76886300"><ele>372.16748</ele><time>2008-08-17T14:49:11Z</time></trkpt>
<trkpt lat="49.69067730" lon="5.76886300"><ele>368.322266</ele><time>2008-08-17T14:49:12Z</time></trkpt>
<trkpt lat="49.69067730" lon="5.76886300"><ele>368.322266</ele><time>2008-08-17T14:49:53Z</time></trkpt>
<trkpt lat="49.69083270" lon="5.76881980"><ele>367.360962</ele><time>2008-08-17T14:49:58Z</time></trkpt>
<trkpt lat="49.69114080" lon="5.76873410"><ele>366.399536</ele><time>2008-08-17T14:50:08Z</time></trkpt>
<trkpt lat="49.69118370" lon="5.76872220"><ele>365.918945</ele><time>2008-08-17T14:50:09Z</time></trkpt>
<trkpt lat="49.69193750" lon="5.76841900"><ele>363.515747</ele><time>2008-08-17T14:50:24Z</time></trkpt>
<trkpt lat="49.69258220" lon="5.76813970"><ele>361.59314</ele><time>2008-08-17T14:50:37Z</time></trkpt>
<trkpt lat="49.69262120" lon="5.76812270"><ele>361.112427</ele><time>2008-08-17T14:50:38Z</time></trkpt>
<trkpt lat="49.69297780" lon="5.76774060"><ele>360.631714</ele><time>2008-08-17T14:50:52Z</time></trkpt>
<trkpt lat="49.69313590" lon="5.76777200"><ele>360.631714</ele><time>2008-08-17T14:51:05Z</time></trkpt>
<trkpt lat="49.69319840" lon="5.76755930"><ele>359.189697</ele><time>2008-08-17T14:51:09Z</time></trkpt>
<trkpt lat="49.69387630" lon="5.76747890"><ele>363.035034</ele><time>2008-08-17T14:51:24Z</time></trkpt>
<trkpt lat="49.69423630" lon="5.76747890"><ele>366.399536</ele><time>2008-08-17T14:51:34Z</time></trkpt>
<trkpt lat="49.69463300" lon="5.76747890"><ele>369.764282</ele><time>2008-08-17T14:51:46Z</time></trkpt>
<trkpt lat="49.69522470" lon="5.76747890"><ele>373.128906</ele><time>2008-08-17T14:52:07Z</time></trkpt>
<trkpt lat="49.69566570" lon="5.76747890"><ele>376.49353</ele><time>2008-08-17T14:52:22Z</time></trkpt>
<trkpt lat="49.69601100" lon="5.76745740"><ele>379.858032</ele><time>2008-08-17T14:52:35Z</time></trkpt>
<trkpt lat="49.69624380" lon="5.76744880"><ele>380.338745</ele><time>2008-08-17T14:52:50Z</time></trkpt>
<trkpt lat="49.69638710" lon="5.76755110"><ele>381.300049</ele><time>2008-08-17T14:53:01Z</time></trkpt>
<trkpt lat="49.69638710" lon="5.76755110"><ele>380.819458</ele><time>2008-08-17T14:53:05Z</time></trkpt>
<trkpt lat="49.69638710" lon="5.76755110"><ele>380.819458</ele><time>2008-08-17T14:53:11Z</time></trkpt>
<trkpt lat="49.69652650" lon="5.76734560"><ele>381.78064</ele><time>2008-08-17T14:53:19Z</time></trkpt>
<trkpt lat="49.69652650" lon="5.76722060"><ele>381.300049</ele><time>2008-08-17T14:53:24Z</time></trkpt>
<trkpt lat="49.69671730" lon="5.76692190"><ele>383.222656</ele><time>2008-08-17T14:53:42Z</time></trkpt>
<trkpt lat="49.69705060" lon="5.76677390"><ele>384.184082</ele><time>2008-08-17T14:53:59Z</time></trkpt>
<trkpt lat="49.69737450" lon="5.76656910"><ele>385.625977</ele><time>2008-08-17T14:54:16Z</time></trkpt>
<trkpt lat="49.69738400" lon="5.76655710"><ele>386.587402</ele><time>2008-08-17T14:54:22Z</time></trkpt>
<trkpt lat="49.69748890" lon="5.76706980"><ele>388.029297</ele><time>2008-08-17T14:54:38Z</time></trkpt>
<trkpt lat="49.69750850" lon="5.76773270"><ele>387.548584</ele><time>2008-08-17T14:54:56Z</time></trkpt>
<trkpt lat="49.69780250" lon="5.76843250"><ele>387.548584</ele><time>2008-08-17T14:55:12Z</time></trkpt>
<trkpt lat="49.69805600" lon="5.76900080"><ele>390.432617</ele><time>2008-08-17T14:55:28Z</time></trkpt>
<trkpt lat="49.69845450" lon="5.76957770"><ele>390.913208</ele><time>2008-08-17T14:55:46Z</time></trkpt>
<trkpt lat="49.69893410" lon="5.77009210"><ele>391.393799</ele><time>2008-08-17T14:56:05Z</time></trkpt>
<trkpt lat="49.69943090" lon="5.77048610"><ele>391.874512</ele><time>2008-08-17T14:56:22Z</time></trkpt>
<trkpt lat="49.70000100" lon="5.77088950"><ele>390.913208</ele><time>2008-08-17T14:56:41Z</time></trkpt>
<trkpt lat="49.70020430" lon="5.77103370"><ele>389.471191</ele><time>2008-08-17T14:56:46Z</time></trkpt>
<trkpt lat="49.70033580" lon="5.77112670"><ele>389.471191</ele><time>2008-08-17T14:56:49Z</time></trkpt>
<trkpt lat="49.70101470" lon="5.77131400"><ele>387.067993</ele><time>2008-08-17T14:57:02Z</time></trkpt>
<trkpt lat="49.70171680" lon="5.77151100"><ele>388.029297</ele><time>2008-08-17T14:57:17Z</time></trkpt>
<trkpt lat="49.70191930" lon="5.77158410"><ele>387.548584</ele><time>2008-08-17T14:57:22Z</time></trkpt>
<trkpt lat="49.70252440" lon="5.77180260"><ele>390.913208</ele><time>2008-08-17T14:57:36Z</time></trkpt>
<trkpt lat="49.70291170" lon="5.77213830"><ele>391.874512</ele><time>2008-08-17T14:57:52Z</time></trkpt>
<trkpt lat="49.70316790" lon="5.77265070"><ele>389.951904</ele><time>2008-08-17T14:58:05Z</time></trkpt>
<trkpt lat="49.70344480" lon="5.77320430"><ele>386.587402</ele><time>2008-08-17T14:58:16Z</time></trkpt>
<trkpt lat="49.70347300" lon="5.77326080"><ele>386.587402</ele><time>2008-08-17T14:58:17Z</time></trkpt>
<trkpt lat="49.70371150" lon="5.77373770"><ele>385.145386</ele><time>2008-08-17T14:58:25Z</time></trkpt>
<trkpt lat="49.70418510" lon="5.77442660"><ele>384.184082</ele><time>2008-08-17T14:58:40Z</time></trkpt>
<trkpt lat="49.70474000" lon="5.77521700"><ele>385.145386</ele><time>2008-08-17T14:59:00Z</time></trkpt>
<trkpt lat="49.70492400" lon="5.77547910"><ele>387.548584</ele><time>2008-08-17T14:59:07Z</time></trkpt>
<trkpt lat="49.70518680" lon="5.77607100"><ele>389.471191</ele><time>2008-08-17T14:59:23Z</time></trkpt>
<trkpt lat="49.70515860" lon="5.77638080"><ele>388.51001</ele><time>2008-08-17T14:59:36Z</time></trkpt>
<trkpt lat="49.70494470" lon="5.77691190"><ele>385.145386</ele><time>2008-08-17T14:59:49Z</time></trkpt>
<trkpt lat="49.70499230" lon="5.77745960"><ele>383.222656</ele><time>2008-08-17T14:59:59Z</time></trkpt>
<trkpt lat="49.70491850" lon="5.77816860"><ele>380.338745</ele><time>2008-08-17T15:00:11Z</time></trkpt>
<trkpt lat="49.70470640" lon="5.77871870"><ele>376.974243</ele><time>2008-08-17T15:00:20Z</time></trkpt>
<trkpt lat="49.70456750" lon="5.77938980"><ele>373.609497</ele><time>2008-08-17T15:00:29Z</time></trkpt>
<trkpt lat="49.70446590" lon="5.78004620"><ele>370.244873</ele><time>2008-08-17T15:00:39Z</time></trkpt>
<trkpt lat="49.70460080" lon="5.78022710"><ele>369.283691</ele><time>2008-08-17T15:00:45Z</time></trkpt>
<trkpt lat="49.70531910" lon="5.78069690"><ele>368.322266</ele><time>2008-08-17T15:01:03Z</time></trkpt>
<trkpt lat="49.70587290" lon="5.78109050"><ele>369.283691</ele><time>2008-08-17T15:01:21Z</time></trkpt>
<trkpt lat="49.70646590" lon="5.78154230"><ele>368.802979</ele><time>2008-08-17T15:01:40Z</time></trkpt>
<trkpt lat="49.70699220" lon="5.78206450"><ele>367.360962</ele><time>2008-08-17T15:01:55Z</time></trkpt>
<trkpt lat="49.70728400" lon="5.78264250"><ele>366.880249</ele><time>2008-08-17T15:02:08Z</time></trkpt>
<trkpt lat="49.70734870" lon="5.78317520"><ele>366.880249</ele><time>2008-08-17T15:02:19Z</time></trkpt>
<trkpt lat="49.70740910" lon="5.78355430"><ele>367.360962</ele><time>2008-08-17T15:02:31Z</time></trkpt>
<trkpt lat="49.70740910" lon="5.78355430"><ele>366.880249</ele><time>2008-08-17T15:02:48Z</time></trkpt>
<trkpt lat="49.70740910" lon="5.78355430"><ele>367.360962</ele><time>2008-08-17T15:02:54Z</time></trkpt>
<trkpt lat="49.70753640" lon="5.78364390"><ele>366.880249</ele><time>2008-08-17T15:03:00Z</time></trkpt>
<trkpt lat="49.70761040" lon="5.78367620"><ele>366.880249</ele><time>2008-08-17T15:03:04Z</time></trkpt>
<trkpt lat="49.70775470" lon="5.78373890"><ele>367.360962</ele><time>2008-08-17T15:03:11Z</time></trkpt>
<trkpt lat="49.70779050" lon="5.78375450"><ele>367.360962</ele><time>2008-08-17T15:03:24Z</time></trkpt>
<trkpt lat="49.70779050" lon="5.78375450"><ele>367.360962</ele><time>2008-08-17T15:03:25Z</time></trkpt>
<trkpt lat="49.70779050" lon="5.78375450"><ele>366.880249</ele><time>2008-08-17T15:03:30Z</time></trkpt>
<trkpt lat="49.70842710" lon="5.78403140"><ele>366.880249</ele><time>2008-08-17T15:03:42Z</time></trkpt>
<trkpt lat="49.70906380" lon="5.78423860"><ele>367.360962</ele><time>2008-08-17T15:03:57Z</time></trkpt>
<trkpt lat="49.70963440" lon="5.78447120"><ele>369.283691</ele><time>2008-08-17T15:04:14Z</time></trkpt>
<trkpt lat="49.70981110" lon="5.78467030"><ele>370.244873</ele><time>2008-08-17T15:04:22Z</time></trkpt>
<trkpt lat="49.70987180" lon="5.78477140"><ele>370.725586</ele><time>2008-08-17T15:04:28Z</time></trkpt>
<trkpt lat="49.70987180" lon="5.78477140"><ele>370.725586</ele><time>2008-08-17T15:04:31Z</time></trkpt>
<trkpt lat="49.70987320" lon="5.78477380"><ele>370.725586</ele><time>2008-08-17T15:04:47Z</time></trkpt>
<trkpt lat="49.70987320" lon="5.78477380"><ele>374.090088</ele><time>2008-08-17T15:04:54Z</time></trkpt>
<trkpt lat="49.70987320" lon="5.78477380"><ele>372.16748</ele><time>2008-08-17T15:04:55Z</time></trkpt>
<trkpt lat="49.70987320" lon="5.78477380"><ele>371.206299</ele><time>2008-08-17T15:05:25Z</time></trkpt>
<trkpt lat="49.71000940" lon="5.78531560"><ele>374.090088</ele><time>2008-08-17T15:05:37Z</time></trkpt>
<trkpt lat="49.71002790" lon="5.78539770"><ele>375.051514</ele><time>2008-08-17T15:05:39Z</time></trkpt>
<trkpt lat="49.71006270" lon="5.78555180"><ele>376.49353</ele><time>2008-08-17T15:05:43Z</time></trkpt>
<trkpt lat="49.71013250" lon="5.78586050"><ele>379.377441</ele><time>2008-08-17T15:05:51Z</time></trkpt>
<trkpt lat="49.71017230" lon="5.78603680"><ele>381.300049</ele><time>2008-08-17T15:05:56Z</time></trkpt>
<trkpt lat="49.71014740" lon="5.78648640"><ele>384.184082</ele><time>2008-08-17T15:06:07Z</time></trkpt>
<trkpt lat="49.71008780" lon="5.78670500"><ele>386.106689</ele><time>2008-08-17T15:06:15Z</time></trkpt>
<trkpt lat="49.71007840" lon="5.78670610"><ele>386.587402</ele><time>2008-08-17T15:06:34Z</time></trkpt>
<trkpt lat="49.71007840" lon="5.78670610"><ele>387.067993</ele><time>2008-08-17T15:07:09Z</time></trkpt>
<trkpt lat="49.71000190" lon="5.78671560"><ele>388.51001</ele><time>2008-08-17T15:07:15Z</time></trkpt>
<trkpt lat="49.71000190" lon="5.78671560"><ele>388.51001</ele><time>2008-08-17T15:07:32Z</time></trkpt>
<trkpt lat="49.71000190" lon="5.78671560"><ele>388.51001</ele><time>2008-08-17T15:07:43Z</time></trkpt>
<trkpt lat="49.70964350" lon="5.78683430"><ele>389.471191</ele><time>2008-08-17T15:07:58Z</time></trkpt>
<trkpt lat="49.70935180" lon="5.78708440"><ele>390.913208</ele><time>2008-08-17T15:08:15Z</time></trkpt>
<trkpt lat="49.70900580" lon="5.78737850"><ele>394.277954</ele><time>2008-08-17T15:08:34Z</time></trkpt>
<trkpt lat="49.70866490" lon="5.78766430"><ele>396.200562</ele><time>2008-08-17T15:08:50Z</time></trkpt>
<trkpt lat="49.70827890" lon="5.78798800"><ele>399.565063</ele><time>2008-08-17T15:09:07Z</time></trkpt>
<trkpt lat="49.70788080" lon="5.78832200"><ele>400.526489</ele><time>2008-08-17T15:09:27Z</time></trkpt>
<trkpt lat="49.70747210" lon="5.78851050"><ele>399.084351</ele><time>2008-08-17T15:09:41Z</time></trkpt>
<trkpt lat="49.70699080" lon="5.78869640"><ele>399.084351</ele><time>2008-08-17T15:09:58Z</time></trkpt>
<trkpt lat="49.70665360" lon="5.78882660"><ele>398.60376</ele><time>2008-08-17T15:10:10Z</time></trkpt>
<trkpt lat="49.70643550" lon="5.78891090"><ele>397.161743</ele><time>2008-08-17T15:10:16Z</time></trkpt>
<trkpt lat="49.70559880" lon="5.78931570"><ele>397.161743</ele><time>2008-08-17T15:10:39Z</time></trkpt>
<trkpt lat="49.70506770" lon="5.78965360"><ele>397.161743</ele><time>2008-08-17T15:10:54Z</time></trkpt>
<trkpt lat="49.70439020" lon="5.78981970"><ele>396.681152</ele><time>2008-08-17T15:11:10Z</time></trkpt>
<trkpt lat="49.70356530" lon="5.78973120"><ele>393.316528</ele><time>2008-08-17T15:11:25Z</time></trkpt>
<trkpt lat="49.70269930" lon="5.78960450"><ele>390.432617</ele><time>2008-08-17T15:11:41Z</time></trkpt>
<trkpt lat="49.70189260" lon="5.79005100"><ele>388.990601</ele><time>2008-08-17T15:11:57Z</time></trkpt>
<trkpt lat="49.70128420" lon="5.79061890"><ele>385.145386</ele><time>2008-08-17T15:12:10Z</time></trkpt>
<trkpt lat="49.70090610" lon="5.79116490"><ele>382.261353</ele><time>2008-08-17T15:12:18Z</time></trkpt>
<trkpt lat="49.70075480" lon="5.79143380"><ele>380.338745</ele><time>2008-08-17T15:12:21Z</time></trkpt>
<trkpt lat="49.70047150" lon="5.79193850"><ele>376.012817</ele><time>2008-08-17T15:12:26Z</time></trkpt>
<trkpt lat="49.69975170" lon="5.79322050"><ele>374.090088</ele><time>2008-08-17T15:12:40Z</time></trkpt>
<trkpt lat="49.69955570" lon="5.79356950"><ele>374.090088</ele><time>2008-08-17T15:12:45Z</time></trkpt>
<trkpt lat="49.69935460" lon="5.79372680"><ele>373.609497</ele><time>2008-08-17T15:12:49Z</time></trkpt>
<trkpt lat="49.69852180" lon="5.79425880"><ele>371.68689</ele><time>2008-08-17T15:13:05Z</time></trkpt>
<trkpt lat="49.69805400" lon="5.79455760"><ele>371.206299</ele><time>2008-08-17T15:13:18Z</time></trkpt>
<trkpt lat="49.69785690" lon="5.79490180"><ele>372.16748</ele><time>2008-08-17T15:13:32Z</time></trkpt>
<trkpt lat="49.69754460" lon="5.79507520"><ele>372.16748</ele><time>2008-08-17T15:13:44Z</time></trkpt>
<trkpt lat="49.69718830" lon="5.79539870"><ele>370.725586</ele><time>2008-08-17T15:13:57Z</time></trkpt>
<trkpt lat="49.69673190" lon="5.79620360"><ele>368.802979</ele><time>2008-08-17T15:14:12Z</time></trkpt>
<trkpt lat="49.69650940" lon="5.79667610"><ele>367.841553</ele><time>2008-08-17T15:14:19Z</time></trkpt>
<trkpt lat="49.69584260" lon="5.79777300"><ele>367.841553</ele><time>2008-08-17T15:14:37Z</time></trkpt>
<trkpt lat="49.69538390" lon="5.79861140"><ele>367.360962</ele><time>2008-08-17T15:14:54Z</time></trkpt>
<trkpt lat="49.69528660" lon="5.79881540"><ele>369.283691</ele><time>2008-08-17T15:15:57Z</time></trkpt>
<trkpt lat="49.69521740" lon="5.79897950"><ele>368.802979</ele><time>2008-08-17T15:16:58Z</time></trkpt>
<trkpt lat="49.69519960" lon="5.79909290"><ele>368.802979</ele><time>2008-08-17T15:17:02Z</time></trkpt>
<trkpt lat="49.69508820" lon="5.79970530"><ele>368.802979</ele><time>2008-08-17T15:17:19Z</time></trkpt>
<trkpt lat="49.69495690" lon="5.80033480"><ele>369.283691</ele><time>2008-08-17T15:17:34Z</time></trkpt>
<trkpt lat="49.69477820" lon="5.80048320"><ele>370.244873</ele><time>2008-08-17T15:17:46Z</time></trkpt>
<trkpt lat="49.69467280" lon="5.80046620"><ele>369.764282</ele><time>2008-08-17T15:17:50Z</time></trkpt>
<trkpt lat="49.69463830" lon="5.80069540"><ele>369.764282</ele><time>2008-08-17T15:17:58Z</time></trkpt>
<trkpt lat="49.69424430" lon="5.80114840"><ele>369.283691</ele><time>2008-08-17T15:18:04Z</time></trkpt>
<trkpt lat="49.69385300" lon="5.80159840"><ele>369.764282</ele><time>2008-08-17T15:18:17Z</time></trkpt>
<trkpt lat="49.69343880" lon="5.80201400"><ele>372.648193</ele><time>2008-08-17T15:18:33Z</time></trkpt>
<trkpt lat="49.69311890" lon="5.80232510"><ele>374.570801</ele><time>2008-08-17T15:18:47Z</time></trkpt>
<trkpt lat="49.69292620" lon="5.80251240"><ele>377.454834</ele><time>2008-08-17T15:18:56Z</time></trkpt>
<trkpt lat="49.69267000" lon="5.80276150"><ele>377.935425</ele><time>2008-08-17T15:19:10Z</time></trkpt>
<trkpt lat="49.69244220" lon="5.80298290"><ele>378.416138</ele><time>2008-08-17T15:19:22Z</time></trkpt>
<trkpt lat="49.69211290" lon="5.80331130"><ele>380.819458</ele><time>2008-08-17T15:19:40Z</time></trkpt>
<trkpt lat="49.69186930" lon="5.80356420"><ele>382.261353</ele><time>2008-08-17T15:19:52Z</time></trkpt>
<trkpt lat="49.69138380" lon="5.80406830"><ele>384.184082</ele><time>2008-08-17T15:20:14Z</time></trkpt>
<trkpt lat="49.69101120" lon="5.80445510"><ele>385.145386</ele><time>2008-08-17T15:20:32Z</time></trkpt>
<trkpt lat="49.69061640" lon="5.80486520"><ele>386.106689</ele><time>2008-08-17T15:20:50Z</time></trkpt>
<trkpt lat="49.69034960" lon="5.80514240"><ele>387.067993</ele><time>2008-08-17T15:21:04Z</time></trkpt>
<trkpt lat="49.68999070" lon="5.80552550"><ele>388.51001</ele><time>2008-08-17T15:21:22Z</time></trkpt>
<trkpt lat="49.68965820" lon="5.80613920"><ele>388.990601</ele><time>2008-08-17T15:21:42Z</time></trkpt>
<trkpt lat="49.68947230" lon="5.80648230"><ele>388.990601</ele><time>2008-08-17T15:21:54Z</time></trkpt>
<trkpt lat="49.68917000" lon="5.80674810"><ele>389.471191</ele><time>2008-08-17T15:22:08Z</time></trkpt>
<trkpt lat="49.68872310" lon="5.80675290"><ele>390.432617</ele><time>2008-08-17T15:22:23Z</time></trkpt>
<trkpt lat="49.68828940" lon="5.80675770"><ele>390.432617</ele><time>2008-08-17T15:22:38Z</time></trkpt>
<trkpt lat="49.68777290" lon="5.80676320"><ele>391.393799</ele><time>2008-08-17T15:22:55Z</time></trkpt>
<trkpt lat="49.68735250" lon="5.80676790"><ele>391.874512</ele><time>2008-08-17T15:23:09Z</time></trkpt>
<trkpt lat="49.68688210" lon="5.80677300"><ele>393.797241</ele><time>2008-08-17T15:23:24Z</time></trkpt>
<trkpt lat="49.68651170" lon="5.80677700"><ele>394.277954</ele><time>2008-08-17T15:23:37Z</time></trkpt>
<trkpt lat="49.68638560" lon="5.80677840"><ele>393.797241</ele><time>2008-08-17T15:23:41Z</time></trkpt>
<trkpt lat="49.68570020" lon="5.80678600"><ele>392.355347</ele><time>2008-08-17T15:23:59Z</time></trkpt>
<trkpt lat="49.68547000" lon="5.80678840"><ele>392.835938</ele><time>2008-08-17T15:24:12Z</time></trkpt>
<trkpt lat="49.68538930" lon="5.80678930"><ele>392.355347</ele><time>2008-08-17T15:24:17Z</time></trkpt>
<trkpt lat="49.68536850" lon="5.80678940"><ele>392.835938</ele><time>2008-08-17T15:24:37Z</time></trkpt>
<trkpt lat="49.68536850" lon="5.80678940"><ele>392.355347</ele><time>2008-08-17T15:24:45Z</time></trkpt>
<trkpt lat="49.68536410" lon="5.80685290"><ele>392.355347</ele><time>2008-08-17T15:24:50Z</time></trkpt>
<trkpt lat="49.68532160" lon="5.80745630"><ele>395.719849</ele><time>2008-08-17T15:25:05Z</time></trkpt>
<trkpt lat="49.68526020" lon="5.80832760"><ele>398.123169</ele><time>2008-08-17T15:25:25Z</time></trkpt>
<trkpt lat="49.68521790" lon="5.80892840"><ele>401.487793</ele><time>2008-08-17T15:25:39Z</time></trkpt>
<trkpt lat="49.68517340" lon="5.80956020"><ele>403.4104</ele><time>2008-08-17T15:25:54Z</time></trkpt>
<trkpt lat="49.68498570" lon="5.80961190"><ele>404.371704</ele><time>2008-08-17T15:25:57Z</time></trkpt>
<trkpt lat="49.68488520" lon="5.80947790"><ele>404.371704</ele><time>2008-08-17T15:26:01Z</time></trkpt>
<trkpt lat="49.68437220" lon="5.80877200"><ele>406.774902</ele><time>2008-08-17T15:26:20Z</time></trkpt>
<trkpt lat="49.68399200" lon="5.80824410"><ele>408.217041</ele><time>2008-08-17T15:26:36Z</time></trkpt>
<trkpt lat="49.68367230" lon="5.80780930"><ele>407.255615</ele><time>2008-08-17T15:26:53Z</time></trkpt>
<trkpt lat="49.68335250" lon="5.80737430"><ele>405.333008</ele><time>2008-08-17T15:27:07Z</time></trkpt>
<trkpt lat="49.68290330" lon="5.80675750"><ele>402.449097</ele><time>2008-08-17T15:27:20Z</time></trkpt>
<trkpt lat="49.68270330" lon="5.80647440"><ele>401.00708</ele><time>2008-08-17T15:27:25Z</time></trkpt>
<trkpt lat="49.68248490" lon="5.80623180"><ele>399.084351</ele><time>2008-08-17T15:27:30Z</time></trkpt>
<trkpt lat="49.68194480" lon="5.80592780"><ele>399.084351</ele><time>2008-08-17T15:27:43Z</time></trkpt>
<trkpt lat="49.68175520" lon="5.80540240"><ele>398.60376</ele><time>2008-08-17T15:27:52Z</time></trkpt>
<trkpt lat="49.68174600" lon="5.80545010"><ele>398.60376</ele><time>2008-08-17T15:28:02Z</time></trkpt>
<trkpt lat="49.68121610" lon="5.80558070"><ele>399.565063</ele><time>2008-08-17T15:28:12Z</time></trkpt>
<trkpt lat="49.68069140" lon="5.80532890"><ele>396.200562</ele><time>2008-08-17T15:28:26Z</time></trkpt>
<trkpt lat="49.68044490" lon="5.80536720"><ele>394.277954</ele><time>2008-08-17T15:28:30Z</time></trkpt>
<trkpt lat="49.68023710" lon="5.80546620"><ele>389.951904</ele><time>2008-08-17T15:28:33Z</time></trkpt>
<trkpt lat="49.68016400" lon="5.80548810"><ele>389.471191</ele><time>2008-08-17T15:28:34Z</time></trkpt>
<trkpt lat="49.67977810" lon="5.80560390"><ele>388.51001</ele><time>2008-08-17T15:28:39Z</time></trkpt>
<trkpt lat="49.67935350" lon="5.80568810"><ele>384.664795</ele><time>2008-08-17T15:28:44Z</time></trkpt>
<trkpt lat="49.67888660" lon="5.80519900"><ele>381.78064</ele><time>2008-08-17T15:28:50Z</time></trkpt>
<trkpt lat="49.67809600" lon="5.80358710"><ele>380.338745</ele><time>2008-08-17T15:29:05Z</time></trkpt>
<trkpt lat="49.67801660" lon="5.80314160"><ele>381.300049</ele><time>2008-08-17T15:29:09Z</time></trkpt>
<trkpt lat="49.67793000" lon="5.80149920"><ele>382.742065</ele><time>2008-08-17T15:29:24Z</time></trkpt>
<trkpt lat="49.67788290" lon="5.79989860"><ele>384.184082</ele><time>2008-08-17T15:29:41Z</time></trkpt>
<trkpt lat="49.67785820" lon="5.79906170"><ele>384.664795</ele><time>2008-08-17T15:29:51Z</time></trkpt>
<trkpt lat="49.67777490" lon="5.79793710"><ele>386.106689</ele><time>2008-08-17T15:30:09Z</time></trkpt>
<trkpt lat="49.67758340" lon="5.79721260"><ele>386.587402</ele><time>2008-08-17T15:30:24Z</time></trkpt>
<trkpt lat="49.67757130" lon="5.79693530"><ele>387.067993</ele><time>2008-08-17T15:30:31Z</time></trkpt>
<trkpt lat="49.67789520" lon="5.79683560"><ele>386.106689</ele><time>2008-08-17T15:31:11Z</time></trkpt>
<trkpt lat="49.67840500" lon="5.79660450"><ele>384.664795</ele><time>2008-08-17T15:31:26Z</time></trkpt>
<trkpt lat="49.67900680" lon="5.79625730"><ele>381.78064</ele><time>2008-08-17T15:31:40Z</time></trkpt>
<trkpt lat="49.67949010" lon="5.79609690"><ele>380.338745</ele><time>2008-08-17T15:31:52Z</time></trkpt>
<trkpt lat="49.67955690" lon="5.79609170"><ele>380.819458</ele><time>2008-08-17T15:31:59Z</time></trkpt>
<trkpt lat="49.67953650" lon="5.79609330"><ele>379.858032</ele><time>2008-08-17T15:32:06Z</time></trkpt>
<trkpt lat="49.67952360" lon="5.79609430"><ele>379.858032</ele><time>2008-08-17T15:32:16Z</time></trkpt>
<trkpt lat="49.67913960" lon="5.79658260"><ele>380.338745</ele><time>2008-08-17T15:32:28Z</time></trkpt>
</trkseg></trk></gpx>